Marionville, Virginia
Current Conditions -  °F | °C
As of 9:35 AM on Friday 31 Oct 2014 (Local Time) from KMFV Reporting Station
Broken Clouds Broken Clouds  
Wind Chill: 44°   Ceiling: 3600
Heat Index: 46°   Visibility: 10mi
Dew Point: 37°   Wind: 6mph
Humidity: 71%   Direction: 30°NNE
Pressure: 29.95"   Gusts: NA
Location:  37.45°N, 75.85°W
Report Text: KMFV 311335Z AUTO 03005KT 10SM BKN036 08/03 A2995 RMK AO2
Loading
Personal Weather Stations






























Interactive Weather Map
Tropical Storm Tracking
New forecast layout! Learn more

10-Day Weather Forecast

Advertisements
Track Severe Weather on mobile